createdAt,value
2019-05-25T00:01:26.286Z,1.67
2019-05-25T00:05:38.295Z,2.10
2019-05-25T00:09:50.239Z,3.00
2019-05-25T00:14:02.129Z,1.80
2019-05-25T00:18:14.787Z,2.53
2019-05-25T00:22:26.607Z,3.13
2019-05-25T00:26:39.445Z,2.17
2019-05-25T00:30:51.041Z,2.27
2019-05-25T00:35:02.838Z,2.00
2019-05-25T00:39:14.875Z,1.73
2019-05-25T00:43:26.502Z,1.77
2019-05-25T00:47:38.384Z,2.80
2019-05-25T00:51:50.245Z,1.90
2019-05-25T00:56:01.849Z,2.40
2019-05-25T01:00:13.825Z,2.43
2019-05-25T01:04:25.539Z,2.07
2019-05-25T01:08:37.386Z,2.10
2019-05-25T01:12:49.487Z,3.83
2019-05-25T01:17:01.293Z,4.57
2019-05-25T01:21:13.149Z,2.10
2019-05-25T01:25:24.859Z,1.60
2019-05-25T01:29:36.528Z,1.90
2019-05-25T01:33:48.344Z,2.30
2019-05-25T01:38:00.144Z,1.90
2019-05-25T01:42:11.944Z,2.13
2019-05-25T01:46:23.580Z,4.50
2019-05-25T01:50:35.299Z,2.60
2019-05-25T01:54:59.431Z,3.53
2019-05-25T01:59:00.583Z,2.63
2019-05-25T02:03:12.293Z,3.03
2019-05-25T02:07:24.142Z,2.90
2019-05-25T02:11:35.836Z,6.23
2019-05-25T02:15:47.489Z,3.90
2019-05-25T02:19:59.353Z,4.37
2019-05-25T02:24:11.189Z,2.30
2019-05-25T02:28:22.985Z,3.63
2019-05-25T02:32:34.583Z,3.77
2019-05-25T02:36:46.269Z,2.70
2019-05-25T02:40:58.372Z,2.90
2019-05-25T02:45:10.284Z,3.27
2019-05-25T02:49:22.087Z,2.40
2019-05-25T02:53:33.952Z,3.20
2019-05-25T02:57:46.924Z,5.13
2019-05-25T03:01:58.644Z,4.77
2019-05-25T03:06:10.743Z,4.80
2019-05-25T03:10:22.690Z,4.63
2019-05-25T03:14:34.440Z,3.77
2019-05-25T03:18:46.241Z,4.10
2019-05-25T03:22:58.093Z,3.73
2019-05-25T03:27:09.655Z,5.67
2019-05-25T03:31:21.359Z,4.30
2019-05-25T03:35:33.449Z,4.93
2019-05-25T03:39:45.282Z,3.87
2019-05-25T03:43:57.054Z,4.13
2019-05-25T03:48:08.849Z,3.00
2019-05-25T03:52:20.758Z,4.60
2019-05-25T03:56:32.444Z,6.87
2019-05-25T04:00:44.234Z,5.17
2019-05-25T04:04:56.051Z,4.30
2019-05-25T04:09:08.497Z,4.77
2019-05-25T04:13:20.319Z,5.67
2019-05-25T04:17:32.071Z,4.97
2019-05-25T04:21:43.892Z,6.60
2019-05-25T04:25:55.940Z,3.30
2019-05-25T04:30:10.072Z,6.10
2019-05-25T04:34:21.835Z,5.67
2019-05-25T04:38:33.631Z,5.60
2019-05-25T04:42:45.444Z,5.70
2019-05-25T04:46:57.259Z,4.13
2019-05-25T04:51:08.930Z,6.60
2019-05-25T04:55:20.735Z,5.97
2019-05-25T04:59:32.587Z,6.27
2019-05-25T05:03:45.491Z,5.57
2019-05-25T05:07:57.201Z,4.90
2019-05-25T05:12:09.003Z,6.10
2019-05-25T05:16:20.761Z,4.70
2019-05-25T05:20:32.584Z,4.17
2019-05-25T05:24:44.468Z,7.30
2019-05-25T05:28:56.437Z,6.50
2019-05-25T05:33:08.320Z,6.03
2019-05-25T05:37:21.295Z,6.77
2019-05-25T05:41:35.028Z,5.17
2019-05-25T05:45:48.242Z,5.27
2019-05-25T05:50:02.936Z,5.60
2019-05-25T05:54:17.772Z,8.30
2019-05-25T05:58:29.695Z,6.73
2019-05-25T06:02:41.676Z,6.50
2019-05-25T06:06:53.380Z,7.17
2019-05-25T06:11:05.409Z,7.13
2019-05-25T06:15:17.387Z,7.47
2019-05-25T06:19:29.140Z,4.97
2019-05-25T06:23:41.054Z,7.90
2019-05-25T06:27:53.113Z,5.50
2019-05-25T06:32:05.112Z,5.23
2019-05-25T06:36:17.164Z,7.83
2019-05-25T06:40:29.095Z,6.23
2019-05-25T06:44:41.792Z,5.67
2019-05-25T06:48:53.601Z,5.97
2019-05-25T06:53:05.560Z,9.17
2019-05-25T06:57:17.403Z,6.80
2019-05-25T07:01:29.286Z,7.33
2019-05-25T07:05:42.041Z,8.23
2019-05-25T07:09:53.938Z,6.40
2019-05-25T07:14:06.002Z,6.43
2019-05-25T07:18:19.694Z,8.13
2019-05-25T07:22:31.508Z,5.63
2019-05-25T07:26:43.400Z,10.17
2019-05-25T07:30:55.202Z,7.47
2019-05-25T07:35:07.565Z,4.40
2019-05-25T07:39:19.434Z,6.03
2019-05-25T07:43:31.234Z,6.07
2019-05-25T07:47:43.927Z,8.63
2019-05-25T07:51:55.892Z,6.53
2019-05-25T07:56:07.648Z,7.67
2019-05-25T08:00:19.664Z,10.10
2019-05-25T08:04:31.520Z,5.93
2019-05-25T08:08:43.841Z,7.90
2019-05-25T08:12:55.768Z,5.73
2019-05-25T08:17:07.563Z,7.13
2019-05-25T08:21:19.288Z,7.27
2019-05-25T08:25:31.056Z,7.67
2019-05-25T08:29:42.870Z,8.57
2019-05-25T08:33:54.665Z,4.80
2019-05-25T08:38:06.620Z,7.50
2019-05-25T08:42:18.389Z,7.50
2019-05-25T08:46:29.988Z,7.57
2019-05-25T08:50:41.766Z,6.93
2019-05-25T08:54:53.577Z,7.23
2019-05-25T08:59:05.727Z,7.47
2019-05-25T09:03:18.063Z,6.83
2019-05-25T09:07:30.890Z,7.90
2019-05-25T09:11:42.615Z,7.07
2019-05-25T09:15:54.355Z,6.07
2019-05-25T09:20:06.705Z,7.77
2019-05-25T09:24:18.524Z,7.17
2019-05-25T09:28:30.340Z,6.40
2019-05-25T09:32:42.453Z,4.17
2019-05-25T09:36:54.256Z,5.13
2019-05-25T09:41:06.095Z,4.97
2019-05-25T09:45:18.056Z,4.63
2019-05-25T09:49:29.772Z,4.57
2019-05-25T09:53:41.459Z,3.47
2019-05-25T09:57:53.248Z,4.93
2019-05-25T10:02:05.473Z,5.20
2019-05-25T10:06:17.403Z,3.67
2019-05-25T10:10:29.723Z,3.23
2019-05-25T10:14:41.432Z,4.70
2019-05-25T10:18:53.280Z,4.50
2019-05-25T10:23:05.214Z,3.13
2019-05-25T10:27:17.207Z,4.40
2019-05-25T10:31:29.401Z,5.13
2019-05-25T10:35:41.396Z,5.13
2019-05-25T10:39:53.213Z,6.43
2019-05-25T10:44:04.988Z,6.30
2019-05-25T10:48:16.710Z,4.50
2019-05-25T10:52:28.617Z,8.13
2019-05-25T10:56:40.462Z,5.67
2019-05-25T11:00:52.619Z,7.50
2019-05-25T11:05:05.124Z,7.80
2019-05-25T11:09:16.942Z,6.03
2019-05-25T11:13:28.860Z,7.37
2019-05-25T11:17:40.749Z,8.53
2019-05-25T11:21:52.666Z,6.93
2019-05-25T11:26:04.550Z,9.30
2019-05-25T11:30:16.752Z,8.07
2019-05-25T11:34:28.484Z,6.60
2019-05-25T11:38:40.084Z,5.40
2019-05-25T11:42:51.890Z,8.23
2019-05-25T11:47:03.717Z,6.33
2019-05-25T11:51:15.563Z,7.23
2019-05-25T11:55:27.429Z,5.83
2019-05-25T11:59:39.398Z,7.80
2019-05-25T12:03:50.991Z,11.73
2019-05-25T12:08:02.694Z,5.70
2019-05-25T12:12:14.597Z,7.67
2019-05-25T12:16:26.624Z,8.93
2019-05-25T12:20:38.372Z,8.70
2019-05-25T12:24:50.172Z,10.27
2019-05-25T12:29:02.079Z,14.43
2019-05-25T12:33:13.691Z,10.20
2019-05-25T12:37:25.637Z,10.47
2019-05-25T12:41:38.081Z,7.73
2019-05-25T12:45:50.268Z,10.73
2019-05-25T12:50:02.419Z,8.07
2019-05-25T12:54:14.524Z,11.70
2019-05-25T12:58:26.742Z,9.27
2019-05-25T13:02:38.664Z,7.83
2019-05-25T13:06:50.443Z,12.37
2019-05-25T13:11:02.235Z,9.53
2019-05-25T13:15:14.392Z,7.00
2019-05-25T13:19:26.535Z,6.40
2019-05-25T13:23:38.467Z,9.43
2019-05-25T13:27:50.389Z,9.83
2019-05-25T13:32:02.282Z,10.10
2019-05-25T13:36:14.075Z,8.90
2019-05-25T13:40:25.787Z,10.47
2019-05-25T13:44:38.624Z,11.60
2019-05-25T13:48:50.464Z,14.93
2019-05-25T13:53:02.417Z,12.33
2019-05-25T13:57:14.232Z,10.07
2019-05-25T14:01:28.702Z,12.70
2019-05-25T14:05:39.239Z,11.30
2019-05-25T14:09:51.044Z,11.93
2019-05-25T14:14:02.946Z,12.60
2019-05-25T14:18:14.902Z,8.63
2019-05-25T14:22:27.624Z,14.70
2019-05-25T14:26:39.464Z,14.63
2019-05-25T14:30:51.427Z,9.90
2019-05-25T14:35:03.508Z,8.07
2019-05-25T14:39:15.680Z,10.63
2019-05-25T14:43:27.591Z,11.60
2019-05-25T14:47:39.398Z,9.17
2019-05-25T14:51:51.554Z,10.40
2019-05-25T14:56:03.303Z,10.60
2019-05-25T15:00:15.506Z,8.90
2019-05-25T15:04:27.412Z,9.93
2019-05-25T15:08:39.234Z,10.03
2019-05-25T15:12:50.996Z,9.27
2019-05-25T15:17:03.042Z,8.00
2019-05-25T15:21:14.844Z,11.23
2019-05-25T15:25:26.913Z,9.17
2019-05-25T15:29:38.884Z,11.97
2019-05-25T15:33:50.640Z,7.43
2019-05-25T15:38:02.464Z,9.67
2019-05-25T15:42:14.274Z,9.90
2019-05-25T15:46:26.052Z,10.03
2019-05-25T15:50:37.669Z,7.23
2019-05-25T15:54:49.508Z,9.10
2019-05-25T15:59:01.489Z,5.83
2019-05-25T16:03:13.301Z,6.93
2019-05-25T16:07:25.148Z,8.97
2019-05-25T16:11:37.111Z,11.07
2019-05-25T16:15:49.099Z,9.47
2019-05-25T16:20:01.020Z,7.53
2019-05-25T16:24:12.969Z,5.17
2019-05-25T16:28:24.928Z,6.67
2019-05-25T16:33:07.154Z,6.00
2019-05-25T16:36:50.294Z,6.40
2019-05-25T16:41:02.125Z,4.87
2019-05-25T16:45:14.112Z,3.93
2019-05-25T16:49:25.873Z,5.00
2019-05-25T16:53:37.764Z,7.30
2019-05-25T16:57:51.188Z,4.33
2019-05-25T17:02:03.512Z,3.43
2019-05-25T17:06:15.391Z,2.83
2019-05-25T17:10:27.288Z,3.87
2019-05-25T17:14:39.240Z,3.60
2019-05-25T17:18:51.251Z,3.53
2019-05-25T17:23:03.102Z,2.63
2019-05-25T17:27:15.104Z,3.63
2019-05-25T17:31:26.982Z,3.87
2019-05-25T17:35:38.715Z,3.90
2019-05-25T17:39:50.403Z,3.57
2019-05-25T17:44:02.195Z,3.47
2019-05-25T17:48:14.917Z,2.27
2019-05-25T17:52:27.168Z,3.80
2019-05-25T17:56:39.095Z,2.50
2019-05-25T18:00:53.002Z,4.30
2019-05-25T18:05:04.706Z,2.53
2019-05-25T18:09:16.382Z,2.90
2019-05-25T18:13:29.189Z,2.73
2019-05-25T18:17:41.281Z,2.90
2019-05-25T18:21:52.976Z,2.90
2019-05-25T18:26:04.901Z,4.43
2019-05-25T18:30:17.217Z,2.80
2019-05-25T18:34:29.089Z,2.60
2019-05-25T18:38:40.876Z,2.67
2019-05-25T18:42:53.264Z,3.70
2019-05-25T18:47:04.983Z,2.40
2019-05-25T18:51:16.832Z,2.07
2019-05-25T18:55:28.864Z,3.93
2019-05-25T18:59:40.660Z,3.57
2019-05-25T19:03:52.528Z,3.40
2019-05-25T19:08:04.557Z,4.10
2019-05-25T19:12:16.567Z,4.17
2019-05-25T19:16:29.182Z,4.53
2019-05-25T19:20:40.991Z,5.13
2019-05-25T19:24:53.021Z,4.63
2019-05-25T19:29:05.886Z,3.10
2019-05-25T19:33:17.957Z,5.23
2019-05-25T19:37:29.703Z,6.07
2019-05-25T19:41:41.440Z,4.10
2019-05-25T19:45:53.241Z,3.00
2019-05-25T19:50:05.460Z,3.97
2019-05-25T19:54:18.483Z,3.63
2019-05-25T19:58:30.397Z,3.07
2019-05-25T20:02:41.988Z,3.93
2019-05-25T20:06:53.817Z,4.10
2019-05-25T20:11:05.565Z,5.27
2019-05-25T20:15:18.144Z,4.27
2019-05-25T20:19:30.060Z,5.20
2019-05-25T20:23:42.000Z,5.37
2019-05-25T20:27:54.012Z,4.57
2019-05-25T20:32:05.911Z,5.10
2019-05-25T20:36:18.492Z,5.93
2019-05-25T20:40:30.280Z,7.27
2019-05-25T20:44:42.304Z,6.40
2019-05-25T20:48:54.141Z,5.80
2019-05-25T20:53:05.960Z,4.00
2019-05-25T20:57:18.331Z,4.93
2019-05-25T21:01:30.492Z,4.77
2019-05-25T21:05:50.386Z,3.87
2019-05-25T21:09:55.905Z,4.27
2019-05-25T21:14:07.834Z,4.70
2019-05-25T21:18:19.764Z,4.53
2019-05-25T21:22:31.667Z,4.03
2019-05-25T21:26:44.392Z,3.77
2019-05-25T21:30:56.239Z,3.87
2019-05-25T21:35:08.540Z,4.50
2019-05-25T21:39:20.347Z,4.30
2019-05-25T21:43:32.200Z,4.27
2019-05-25T21:47:43.995Z,5.70
2019-05-25T21:51:55.906Z,5.53
2019-05-25T21:56:07.492Z,3.83
2019-05-25T22:00:23.848Z,3.33
2019-05-25T22:04:35.780Z,3.93
2019-05-25T22:08:48.613Z,3.27
2019-05-25T22:13:00.306Z,3.73
2019-05-25T22:17:19.376Z,3.27
2019-05-25T22:21:31.178Z,3.70
2019-05-25T22:25:42.931Z,3.63
2019-05-25T22:29:54.644Z,2.87
2019-05-25T22:34:06.583Z,4.03
2019-05-25T22:38:18.529Z,2.77
2019-05-25T22:42:30.368Z,2.37
2019-05-25T22:46:42.227Z,2.30
2019-05-25T22:50:53.884Z,2.07
2019-05-25T22:55:05.756Z,1.83
2019-05-25T22:59:17.773Z,2.93
2019-05-25T23:03:30.863Z,1.70
2019-05-25T23:07:42.644Z,2.77
2019-05-25T23:11:54.798Z,1.90
2019-05-25T23:16:06.836Z,2.50
2019-05-25T23:20:19.095Z,2.17
2019-05-25T23:24:30.941Z,4.50
2019-05-25T23:28:42.840Z,4.60
2019-05-25T23:32:54.967Z,4.57
2019-05-25T23:37:14.635Z,2.70
2019-05-25T23:41:21.132Z,3.47
2019-05-25T23:45:32.924Z,3.33
2019-05-25T23:49:44.777Z,2.00
2019-05-25T23:53:56.561Z,2.00
2019-05-25T23:58:08.420Z,1.60
